sensor_id;sensor_type;location;lat;lon;timestamp;pressure;altitude;pressure_sealevel;temperature;humidity
73564;BME280;61834;50.196;6.454;2023-01-16T00:00:50;94710.25;;;2.98;98.62
73564;BME280;61834;50.196;6.454;2023-01-16T00:03:18;94701.19;;;2.77;98.40
73564;BME280;61834;50.196;6.454;2023-01-16T00:05:44;94699.63;;;2.76;99.01
73564;BME280;61834;50.196;6.454;2023-01-16T00:08:10;94691.13;;;2.70;99.19
73564;BME280;61834;50.196;6.454;2023-01-16T00:10:35;94691.50;;;2.69;98.98
73564;BME280;61834;50.196;6.454;2023-01-16T00:13:01;94683.28;;;2.58;99.38
73564;BME280;61834;50.196;6.454;2023-01-16T00:15:27;94689.84;;;2.60;99.38
73564;BME280;61834;50.196;6.454;2023-01-16T00:17:52;94682.16;;;2.63;100.00
73564;BME280;61834;50.196;6.454;2023-01-16T00:20:18;94671.44;;;2.73;100.00
73564;BME280;61834;50.196;6.454;2023-01-16T00:22:43;94663.31;;;2.70;100.00
73564;BME280;61834;50.196;6.454;2023-01-16T00:25:09;94666.06;;;2.77;100.00
73564;BME280;61834;50.196;6.454;2023-01-16T00:27:34;94661.94;;;2.90;100.00
73564;BME280;61834;50.196;6.454;2023-01-16T00:30:00;94659.22;;;2.90;99.71
73564;BME280;61834;50.196;6.454;2023-01-16T00:32:25;94649.91;;;2.87;99.27
73564;BME280;61834;50.196;6.454;2023-01-16T00:34:51;94642.22;;;2.89;98.82
73564;BME280;61834;50.196;6.454;2023-01-16T00:37:16;94639.13;;;2.91;99.11
73564;BME280;61834;50.196;6.454;2023-01-16T00:39:41;94632.66;;;2.99;99.24
73564;BME280;61834;50.196;6.454;2023-01-16T00:42:07;94616.41;;;2.95;98.99
73564;BME280;61834;50.196;6.454;2023-01-16T00:44:32;94606.00;;;2.94;98.59
73564;BME280;61834;50.196;6.454;2023-01-16T00:46:58;94605.63;;;3.02;98.79
73564;BME280;61834;50.196;6.454;2023-01-16T00:49:23;94609.47;;;2.98;99.33
73564;BME280;61834;50.196;6.454;2023-01-16T00:51:48;94589.06;;;3.04;98.37
73564;BME280;61834;50.196;6.454;2023-01-16T00:54:14;94596.38;;;3.03;98.64
73564;BME280;61834;50.196;6.454;2023-01-16T00:56:39;94584.00;;;3.02;98.61
73564;BME280;61834;50.196;6.454;2023-01-16T00:59:05;94585.16;;;2.98;98.96
73564;BME280;61834;50.196;6.454;2023-01-16T01:01:30;94576.28;;;3.01;98.48
73564;BME280;61834;50.196;6.454;2023-01-16T01:04:00;94580.94;;;3.00;98.02
73564;BME280;61834;50.196;6.454;2023-01-16T01:06:25;94586.31;;;2.97;98.05
73564;BME280;61834;50.196;6.454;2023-01-16T01:08:51;94573.56;;;3.01;97.56
73564;BME280;61834;50.196;6.454;2023-01-16T01:11:16;94565.50;;;3.04;97.57
73564;BME280;61834;50.196;6.454;2023-01-16T01:13:42;94552.78;;;3.08;97.60
73564;BME280;61834;50.196;6.454;2023-01-16T01:16:11;94552.00;;;3.08;97.62
73564;BME280;61834;50.196;6.454;2023-01-16T01:18:37;94535.03;;;3.14;96.61
73564;BME280;61834;50.196;6.454;2023-01-16T01:21:02;94527.66;;;3.08;96.93
73564;BME280;61834;50.196;6.454;2023-01-16T01:23:28;94539.28;;;3.15;96.73
73564;BME280;61834;50.196;6.454;2023-01-16T01:25:53;94530.00;;;3.13;97.24
73564;BME280;61834;50.196;6.454;2023-01-16T01:28:19;94522.66;;;3.06;97.43
73564;BME280;61834;50.196;6.454;2023-01-16T01:30:45;94509.50;;;3.05;97.75
73564;BME280;61834;50.196;6.454;2023-01-16T01:33:11;94512.63;;;3.07;97.13
73564;BME280;61834;50.196;6.454;2023-01-16T01:35:37;94500.28;;;3.16;96.53
73564;BME280;61834;50.196;6.454;2023-01-16T01:38:03;94496.41;;;3.17;97.00
73564;BME280;61834;50.196;6.454;2023-01-16T01:40:29;94490.63;;;3.12;97.02
73564;BME280;61834;50.196;6.454;2023-01-16T01:42:55;94494.84;;;3.09;97.36
73564;BME280;61834;50.196;6.454;2023-01-16T01:45:28;94482.84;;;2.96;97.83
73564;BME280;61834;50.196;6.454;2023-01-16T01:51:01;94478.97;;;2.90;98.08
73564;BME280;61834;50.196;6.454;2023-01-16T01:56:11;94455.00;;;2.92;98.80
73564;BME280;61834;50.196;6.454;2023-01-16T01:58:39;94453.88;;;2.93;98.65
73564;BME280;61834;50.196;6.454;2023-01-16T02:01:11;94445.03;;;3.00;97.85
73564;BME280;61834;50.196;6.454;2023-01-16T02:03:41;94437.66;;;2.90;97.37
73564;BME280;61834;50.196;6.454;2023-01-16T02:06:17;94430.69;;;2.82;97.49
73564;BME280;61834;50.196;6.454;2023-01-16T02:08:44;94437.28;;;2.91;97.64
73564;BME280;61834;50.196;6.454;2023-01-16T02:11:18;94425.69;;;2.84;97.68
73564;BME280;61834;50.196;6.454;2023-01-16T02:13:57;94424.13;;;2.83;98.34
73564;BME280;61834;50.196;6.454;2023-01-16T02:16:24;94414.09;;;2.87;97.09
73564;BME280;61834;50.196;6.454;2023-01-16T02:19:16;94400.19;;;2.85;97.38
73564;BME280;61834;50.196;6.454;2023-01-16T02:27:08;94376.25;;;2.76;97.41
73564;BME280;61834;50.196;6.454;2023-01-16T02:32:32;94363.84;;;2.61;98.84
73564;BME280;61834;50.196;6.454;2023-01-16T02:35:25;94356.16;;;2.67;98.57
73564;BME280;61834;50.196;6.454;2023-01-16T02:37:57;94343.06;;;2.69;99.33
73564;BME280;61834;50.196;6.454;2023-01-16T02:43:14;94323.00;;;2.77;98.75
73564;BME280;61834;50.196;6.454;2023-01-16T02:45:50;94311.78;;;2.71;99.24
73564;BME280;61834;50.196;6.454;2023-01-16T02:48:37;94307.56;;;2.70;98.66
73564;BME280;61834;50.196;6.454;2023-01-16T02:54:02;94284.34;;;2.62;98.94
73564;BME280;61834;50.196;6.454;2023-01-16T02:56:38;94284.72;;;2.46;99.20
73564;BME280;61834;50.196;6.454;2023-01-16T02:59:09;94271.59;;;2.41;99.83
73564;BME280;61834;50.196;6.454;2023-01-16T03:01:35;94270.03;;;2.40;99.48
73564;BME280;61834;50.196;6.454;2023-01-16T03:07:18;94261.56;;;2.35;99.18
73564;BME280;61834;50.196;6.454;2023-01-16T03:15:27;94247.66;;;2.26;99.96
73564;BME280;61834;50.196;6.454;2023-01-16T03:21:10;94234.56;;;2.35;99.55
73564;BME280;61834;50.196;6.454;2023-01-16T03:29:10;94213.38;;;2.37;99.51
73564;BME280;61834;50.196;6.454;2023-01-16T03:31:50;94210.28;;;2.38;100.00
73564;BME280;61834;50.196;6.454;2023-01-16T03:34:30;94200.25;;;2.32;100.00
73564;BME280;61834;50.196;6.454;2023-01-16T03:37:04;94196.78;;;2.31;100.00
73564;BME280;61834;50.196;6.454;2023-01-16T03:39:43;94175.19;;;2.31;100.00
73564;BME280;61834;50.196;6.454;2023-01-16T03:42:15;94173.63;;;2.37;100.00
73564;BME280;61834;50.196;6.454;2023-01-16T03:44:49;94159.38;;;2.37;100.00
73564;BME280;61834;50.196;6.454;2023-01-16T03:47:23;94145.88;;;2.30;100.00
73564;BME280;61834;50.196;6.454;2023-01-16T03:49:58;94132.38;;;2.33;100.00
73564;BME280;61834;50.196;6.454;2023-01-16T03:52:31;94137.00;;;2.33;100.00
73564;BME280;61834;50.196;6.454;2023-01-16T03:57:36;94129.28;;;2.35;100.00
73564;BME280;61834;50.196;6.454;2023-01-16T04:00:03;94117.34;;;2.36;100.00
73564;BME280;61834;50.196;6.454;2023-01-16T04:02:46;94104.63;;;2.40;100.00
73564;BME280;61834;50.196;6.454;2023-01-16T04:05:31;94089.94;;;2.48;100.00
73564;BME280;61834;50.196;6.454;2023-01-16T04:08:02;94087.25;;;2.44;100.00
73564;BME280;61834;50.196;6.454;2023-01-16T04:10:34;94081.06;;;2.44;100.00
73564;BME280;61834;50.196;6.454;2023-01-16T04:13:10;94069.13;;;2.34;100.00
73564;BME280;61834;50.196;6.454;2023-01-16T04:15:41;94067.22;;;2.38;100.00
73564;BME280;61834;50.196;6.454;2023-01-16T04:18:07;94056.81;;;2.33;100.00
73564;BME280;61834;50.196;6.454;2023-01-16T04:20:34;94052.94;;;2.34;100.00
73564;BME280;61834;50.196;6.454;2023-01-16T04:23:01;94034.03;;;2.34;100.00
73564;BME280;61834;50.196;6.454;2023-01-16T04:25:26;94028.25;;;2.32;100.00
73564;BME280;61834;50.196;6.454;2023-01-16T04:27:52;94022.47;;;2.34;100.00
73564;BME280;61834;50.196;6.454;2023-01-16T04:30:17;94003.97;;;2.32;100.00
73564;BME280;61834;50.196;6.454;2023-01-16T04:32:42;94004.34;;;2.34;100.00
73564;BME280;61834;50.196;6.454;2023-01-16T04:35:08;93990.84;;;2.41;100.00
73564;BME280;61834;50.196;6.454;2023-01-16T04:37:34;93979.25;;;2.48;100.00
73564;BME280;61834;50.196;6.454;2023-01-16T04:40:00;93973.09;;;2.40;100.00
73564;BME280;61834;50.196;6.454;2023-01-16T04:42:25;93953.84;;;2.42;100.00
73564;BME280;61834;50.196;6.454;2023-01-16T04:44:51;93941.88;;;2.43;100.00
73564;BME280;61834;50.196;6.454;2023-01-16T04:47:16;93934.94;;;2.42;100.00
73564;BME280;61834;50.196;6.454;2023-01-16T04:49:42;93926.84;;;2.38;100.00
73564;BME280;61834;50.196;6.454;2023-01-16T04:52:07;93922.19;;;2.42;100.00
73564;BME280;61834;50.196;6.454;2023-01-16T04:54:32;93914.47;;;2.41;100.00
73564;BME280;61834;50.196;6.454;2023-01-16T04:56:58;93899.44;;;2.47;100.00
73564;BME280;61834;50.196;6.454;2023-01-16T04:59:23;93893.66;;;2.41;100.00
73564;BME280;61834;50.196;6.454;2023-01-16T05:01:48;93890.59;;;2.39;100.00
73564;BME280;61834;50.196;6.454;2023-01-16T05:04:15;93873.59;;;2.39;100.00
73564;BME280;61834;50.196;6.454;2023-01-16T05:06:41;93875.53;;;2.42;100.00
73564;BME280;61834;50.196;6.454;2023-01-16T05:09:07;93874.38;;;2.39;100.00
73564;BME280;61834;50.196;6.454;2023-01-16T05:11:34;93868.19;;;2.46;100.00
73564;BME280;61834;50.196;6.454;2023-01-16T05:13:59;93848.50;;;2.49;100.00
73564;BME280;61834;50.196;6.454;2023-01-16T05:16:25;93845.47;;;2.43;100.00
73564;BME280;61834;50.196;6.454;2023-01-16T05:18:51;93831.19;;;2.43;100.00
73564;BME280;61834;50.196;6.454;2023-01-16T05:21:17;93826.56;;;2.43;100.00
73564;BME280;61834;50.196;6.454;2023-01-16T05:23:42;93812.31;;;2.39;100.00
73564;BME280;61834;50.196;6.454;2023-01-16T05:26:08;93808.06;;;2.42;100.00
73564;BME280;61834;50.196;6.454;2023-01-16T05:28:34;93811.91;;;2.37;100.00
73564;BME280;61834;50.196;6.454;2023-01-16T05:31:00;93803.81;;;2.41;100.00
73564;BME280;61834;50.196;6.454;2023-01-16T05:33:26;93801.91;;;2.38;100.00
73564;BME280;61834;50.196;6.454;2023-01-16T05:35:51;93788.00;;;2.39;100.00
73564;BME280;61834;50.196;6.454;2023-01-16T05:38:18;93776.84;;;2.37;100.00
73564;BME280;61834;50.196;6.454;2023-01-16T05:40:44;93771.44;;;2.37;99.84
73564;BME280;61834;50.196;6.454;2023-01-16T05:43:10;93740.94;;;2.44;99.63
73564;BME280;61834;50.196;6.454;2023-01-16T05:45:35;93740.94;;;2.40;99.18
73564;BME280;61834;50.196;6.454;2023-01-16T05:48:00;93727.44;;;2.40;98.52
73564;BME280;61834;50.196;6.454;2023-01-16T05:50:26;93725.16;;;2.39;98.74
73564;BME280;61834;50.196;6.454;2023-01-16T05:52:51;93710.91;;;2.38;98.91
73564;BME280;61834;50.196;6.454;2023-01-16T05:55:17;93703.63;;;2.32;99.15
73564;BME280;61834;50.196;6.454;2023-01-16T05:57:42;93700.13;;;2.35;98.99
73564;BME280;61834;50.196;6.454;2023-01-16T06:00:08;93693.59;;;2.29;98.50
73564;BME280;61834;50.196;6.454;2023-01-16T06:02:34;93688.19;;;2.32;99.04
73564;BME280;61834;50.196;6.454;2023-01-16T06:04:59;93676.25;;;2.33;98.56
73564;BME280;61834;50.196;6.454;2023-01-16T06:07:25;93681.97;;;2.35;98.91
73564;BME280;61834;50.196;6.454;2023-01-16T06:09:50;93673.09;;;2.42;97.56
73564;BME280;61834;50.196;6.454;2023-01-16T06:12:17;93670.81;;;2.37;97.41
73564;BME280;61834;50.196;6.454;2023-01-16T06:14:43;93661.91;;;2.40;97.67
73564;BME280;61834;50.196;6.454;2023-01-16T06:17:09;93658.50;;;2.29;97.59
73564;BME280;61834;50.196;6.454;2023-01-16T06:19:35;93655.50;;;2.20;98.29
73564;BME280;61834;50.196;6.454;2023-01-16T06:22:00;93644.34;;;2.18;98.15
73564;BME280;61834;50.196;6.454;2023-01-16T06:24:25;93625.06;;;2.16;98.54
73564;BME280;61834;50.196;6.454;2023-01-16T06:26:51;93629.69;;;2.15;98.78
73564;BME280;61834;50.196;6.454;2023-01-16T06:29:16;93613.56;;;2.08;98.68
73564;BME280;61834;50.196;6.454;2023-01-16T06:31:42;93607.44;;;2.04;98.81
73564;BME280;61834;50.196;6.454;2023-01-16T06:34:07;93597.06;;;1.99;98.74
73564;BME280;61834;50.196;6.454;2023-01-16T06:36:32;93579.38;;;1.95;98.73
73564;BME280;61834;50.196;6.454;2023-01-16T06:38:58;93567.88;;;1.84;99.36
73564;BME280;61834;50.196;6.454;2023-01-16T06:41:23;93557.88;;;1.81;100.00
73564;BME280;61834;50.196;6.454;2023-01-16T06:43:49;93546.69;;;1.86;99.82
73564;BME280;61834;50.196;6.454;2023-01-16T06:46:14;93547.09;;;1.81;100.00
73564;BME280;61834;50.196;6.454;2023-01-16T06:48:40;93521.38;;;1.69;100.00
73564;BME280;61834;50.196;6.454;2023-01-16T06:51:07;93519.94;;;1.51;100.00
73564;BME280;61834;50.196;6.454;2023-01-16T06:53:32;93508.53;;;1.33;100.00
73564;BME280;61834;50.196;6.454;2023-01-16T06:55:58;93510.84;;;1.30;100.00
73564;BME280;61834;50.196;6.454;2023-01-16T06:58:23;93500.88;;;1.24;100.00
73564;BME280;61834;50.196;6.454;2023-01-16T07:00:48;93499.75;;;1.21;100.00
73564;BME280;61834;50.196;6.454;2023-01-16T07:03:17;93498.56;;;1.22;100.00
73564;BME280;61834;50.196;6.454;2023-01-16T07:05:44;93496.31;;;1.14;100.00
73564;BME280;61834;50.196;6.454;2023-01-16T07:08:10;93491.28;;;1.19;100.00
73564;BME280;61834;50.196;6.454;2023-01-16T07:10:36;93482.03;;;1.17;100.00
73564;BME280;61834;50.196;6.454;2023-01-16T07:13:01;93476.72;;;1.13;100.00
73564;BME280;61834;50.196;6.454;2023-01-16T07:15:27;93478.66;;;1.06;100.00
73564;BME280;61834;50.196;6.454;2023-01-16T07:18:15;93472.09;;;1.10;100.00
73564;BME280;61834;50.196;6.454;2023-01-16T07:21:04;93455.56;;;1.08;100.00
73564;BME280;61834;50.196;6.454;2023-01-16T07:23:53;93462.50;;;1.06;100.00
73564;BME280;61834;50.196;6.454;2023-01-16T07:26:20;93452.09;;;1.11;100.00
73564;BME280;61834;50.196;6.454;2023-01-16T07:28:48;93446.69;;;1.15;100.00
73564;BME280;61834;50.196;6.454;2023-01-16T07:31:15;93437.84;;;1.11;100.00
73564;BME280;61834;50.196;6.454;2023-01-16T07:33:41;93439.75;;;1.10;100.00
73564;BME280;61834;50.196;6.454;2023-01-16T07:36:06;93438.25;;;1.09;100.00
73564;BME280;61834;50.196;6.454;2023-01-16T07:38:32;93439.41;;;1.08;100.00
73564;BME280;61834;50.196;6.454;2023-01-16T07:40:57;93418.69;;;0.98;100.00
73564;BME280;61834;50.196;6.454;2023-01-16T07:43:23;93426.78;;;0.98;100.00
73564;BME280;61834;50.196;6.454;2023-01-16T07:45:48;93396.41;;;0.91;100.00
73564;BME280;61834;50.196;6.454;2023-01-16T07:48:21;93407.59;;;0.86;100.00
73564;BME280;61834;50.196;6.454;2023-01-16T07:50:51;93389.91;;;0.88;100.00
73564;BME280;61834;50.196;6.454;2023-01-16T07:53:18;93394.56;;;0.81;100.00
73564;BME280;61834;50.196;6.454;2023-01-16T07:55:47;93403.41;;;0.81;100.00
73564;BME280;61834;50.196;6.454;2023-01-16T07:58:14;93398.03;;;0.81;100.00
73564;BME280;61834;50.196;6.454;2023-01-16T08:00:39;93394.94;;;0.79;100.00
73564;BME280;61834;50.196;6.454;2023-01-16T08:03:05;93394.59;;;0.70;100.00
73564;BME280;61834;50.196;6.454;2023-01-16T08:05:30;93376.19;;;0.65;100.00
73564;BME280;61834;50.196;6.454;2023-01-16T08:07:55;93375.44;;;0.65;100.00
73564;BME280;61834;50.196;6.454;2023-01-16T08:10:21;93380.41;;;0.70;100.00
73564;BME280;61834;50.196;6.454;2023-01-16T08:12:46;93380.03;;;0.64;100.00
73564;BME280;61834;50.196;6.454;2023-01-16T08:15:11;93380.81;;;0.65;100.00
73564;BME280;61834;50.196;6.454;2023-01-16T08:17:40;93375.75;;;0.70;100.00
73564;BME280;61834;50.196;6.454;2023-01-16T08:20:07;93361.56;;;0.70;100.00
73564;BME280;61834;50.196;6.454;2023-01-16T08:22:32;93361.59;;;0.66;100.00
73564;BME280;61834;50.196;6.454;2023-01-16T08:24:57;93356.19;;;0.66;100.00
73564;BME280;61834;50.196;6.454;2023-01-16T08:27:23;93351.56;;;0.67;100.00
73564;BME280;61834;50.196;6.454;2023-01-16T08:29:48;93345.81;;;0.65;100.00
73564;BME280;61834;50.196;6.454;2023-01-16T08:32:14;93336.22;;;0.64;100.00
73564;BME280;61834;50.196;6.454;2023-01-16T08:34:41;93340.44;;;0.68;100.00
73564;BME280;61834;50.196;6.454;2023-01-16T08:37:06;93333.50;;;0.67;100.00
73564;BME280;61834;50.196;6.454;2023-01-16T08:39:37;93333.44;;;0.78;100.00
73564;BME280;61834;50.196;6.454;2023-01-16T08:42:03;93328.84;;;0.75;100.00
73564;BME280;61834;50.196;6.454;2023-01-16T08:44:47;93324.22;;;0.72;100.00
73564;BME280;61834;50.196;6.454;2023-01-16T08:47:31;93322.34;;;0.69;100.00
73564;BME280;61834;50.196;6.454;2023-01-16T08:50:17;93326.22;;;0.64;100.00
73564;BME280;61834;50.196;6.454;2023-01-16T08:53:02;93312.69;;;0.75;100.00
73564;BME280;61834;50.196;6.454;2023-01-16T08:55:27;93309.63;;;0.73;100.00
73564;BME280;61834;50.196;6.454;2023-01-16T08:57:53;93320.78;;;0.71;100.00
73564;BME280;61834;50.196;6.454;2023-01-16T09:00:18;93317.25;;;0.81;100.00
73564;BME280;61834;50.196;6.454;2023-01-16T09:02:49;93301.13;;;0.78;100.00
73564;BME280;61834;50.196;6.454;2023-01-16T09:05:15;93299.97;;;0.79;100.00
73564;BME280;61834;50.196;6.454;2023-01-16T09:07:40;93295.28;;;0.90;100.00
73564;BME280;61834;50.196;6.454;2023-01-16T09:10:06;93287.63;;;0.85;100.00
73564;BME280;61834;50.196;6.454;2023-01-16T09:12:32;93276.06;;;0.88;100.00
73564;BME280;61834;50.196;6.454;2023-01-16T09:15:16;93281.31;;;1.02;100.00
73564;BME280;61834;50.196;6.454;2023-01-16T09:17:41;93275.47;;;1.10;100.00
73564;BME280;61834;50.196;6.454;2023-01-16T09:20:07;93263.56;;;1.11;100.00
73564;BME280;61834;50.196;6.454;2023-01-16T09:22:33;93271.16;;;1.23;100.00
73564;BME280;61834;50.196;6.454;2023-01-16T09:24:58;93261.16;;;1.20;100.00
73564;BME280;61834;50.196;6.454;2023-01-16T09:27:24;93257.69;;;1.23;100.00
73564;BME280;61834;50.196;6.454;2023-01-16T09:29:50;93251.75;;;1.36;100.00
73564;BME280;61834;50.196;6.454;2023-01-16T09:32:15;93244.00;;;1.41;100.00
73564;BME280;61834;50.196;6.454;2023-01-16T09:34:42;93231.28;;;1.45;100.00
73564;BME280;61834;50.196;6.454;2023-01-16T09:37:08;93226.59;;;1.49;100.00
73564;BME280;61834;50.196;6.454;2023-01-16T09:39:34;93232.72;;;1.53;100.00
73564;BME280;61834;50.196;6.454;2023-01-16T09:45:32;93218.38;;;1.63;100.00
73564;BME280;61834;50.196;6.454;2023-01-16T09:48:04;93213.72;;;1.64;100.00
73564;BME280;61834;50.196;6.454;2023-01-16T09:50:37;93212.94;;;1.67;100.00
73564;BME280;61834;50.196;6.454;2023-01-16T09:53:19;93224.03;;;1.72;100.00
73564;BME280;61834;50.196;6.454;2023-01-16T09:56:04;93217.44;;;1.77;100.00
73564;BME280;61834;50.196;6.454;2023-01-16T10:01:47;93196.16;;;1.82;100.00
73564;BME280;61834;50.196;6.454;2023-01-16T10:04:23;93181.50;;;1.87;100.00
73564;BME280;61834;50.196;6.454;2023-01-16T10:06:59;93191.91;;;1.85;100.00
73564;BME280;61834;50.196;6.454;2023-01-16T10:09:42;93181.78;;;1.92;100.00
73564;BME280;61834;50.196;6.454;2023-01-16T10:12:12;93165.91;;;1.98;100.00
73564;BME280;61834;50.196;6.454;2023-01-16T10:15:29;93177.88;;;1.97;100.00
73564;BME280;61834;50.196;6.454;2023-01-16T10:23:07;93131.50;;;2.05;100.00
73564;BME280;61834;50.196;6.454;2023-01-16T10:26:03;93140.00;;;2.04;100.00
73564;BME280;61834;50.196;6.454;2023-01-16T10:28:46;93125.66;;;2.10;100.00
73564;BME280;61834;50.196;6.454;2023-01-16T10:31:26;93120.66;;;2.09;100.00
73564;BME280;61834;50.196;6.454;2023-01-16T10:34:08;93115.94;;;2.16;100.00
73564;BME280;61834;50.196;6.454;2023-01-16T10:36:40;93128.19;;;2.21;100.00
73564;BME280;61834;50.196;6.454;2023-01-16T10:39:09;93123.56;;;2.21;100.00
73564;BME280;61834;50.196;6.454;2023-01-16T10:41:40;93106.63;;;2.21;100.00
73564;BME280;61834;50.196;6.454;2023-01-16T10:44:34;93090.44;;;2.21;100.00
73564;BME280;61834;50.196;6.454;2023-01-16T10:47:31;93096.13;;;2.26;100.00
73564;BME280;61834;50.196;6.454;2023-01-16T10:50:17;93079.78;;;2.37;100.00
73564;BME280;61834;50.196;6.454;2023-01-16T10:52:45;93066.41;;;2.30;100.00
73564;BME280;61834;50.196;6.454;2023-01-16T10:55:13;93056.22;;;2.37;100.00
73564;BME280;61834;50.196;6.454;2023-01-16T10:57:55;93053.53;;;2.37;100.00
73564;BME280;61834;50.196;6.454;2023-01-16T11:00:30;93055.13;;;2.35;100.00
73564;BME280;61834;50.196;6.454;2023-01-16T11:03:04;93045.34;;;2.21;100.00
73564;BME280;61834;50.196;6.454;2023-01-16T11:05:35;93038.41;;;2.20;100.00
73564;BME280;61834;50.196;6.454;2023-01-16T11:08:13;93037.75;;;2.13;100.00
73564;BME280;61834;50.196;6.454;2023-01-16T11:10:44;93003.53;;;2.10;100.00
73564;BME280;61834;50.196;6.454;2023-01-16T11:13:16;92998.50;;;2.12;100.00
73564;BME280;61834;50.196;6.454;2023-01-16T11:16:05;92995.78;;;2.12;100.00
73564;BME280;61834;50.196;6.454;2023-01-16T11:18:49;92996.41;;;2.19;100.00
73564;BME280;61834;50.196;6.454;2023-01-16T11:21:28;92993.66;;;2.23;100.00
73564;BME280;61834;50.196;6.454;2023-01-16T11:24:13;92987.34;;;2.10;100.00
73564;BME280;61834;50.196;6.454;2023-01-16T11:26:41;92985.16;;;2.01;100.00
73564;BME280;61834;50.196;6.454;2023-01-16T11:29:16;92976.72;;;1.99;100.00
73564;BME280;61834;50.196;6.454;2023-01-16T11:31:47;92972.97;;;1.93;100.00
73564;BME280;61834;50.196;6.454;2023-01-16T11:34:14;92969.47;;;1.96;100.00
73564;BME280;61834;50.196;6.454;2023-01-16T11:36:40;92963.91;;;2.07;100.00
73564;BME280;61834;50.196;6.454;2023-01-16T11:39:19;92958.41;;;2.10;100.00
73564;BME280;61834;50.196;6.454;2023-01-16T11:41:53;92957.72;;;2.06;100.00
73564;BME280;61834;50.196;6.454;2023-01-16T11:44:32;92959.03;;;1.98;100.00
73564;BME280;61834;50.196;6.454;2023-01-16T11:47:23;92948.97;;;1.99;100.00
73564;BME280;61834;50.196;6.454;2023-01-16T11:49:52;92935.22;;;1.93;100.00
73564;BME280;61834;50.196;6.454;2023-01-16T11:52:21;92939.84;;;1.93;100.00
73564;BME280;61834;50.196;6.454;2023-01-16T11:54:56;92934.41;;;1.96;100.00
73564;BME280;61834;50.196;6.454;2023-01-16T12:03:02;92908.53;;;1.99;100.00
73564;BME280;61834;50.196;6.454;2023-01-16T12:05:46;92902.66;;;2.04;100.00
73564;BME280;61834;50.196;6.454;2023-01-16T12:14:16;92877.91;;;2.09;100.00
73564;BME280;61834;50.196;6.454;2023-01-16T12:22:40;92849.44;;;2.08;100.00
73564;BME280;61834;50.196;6.454;2023-01-16T12:28:12;92836.41;;;2.22;100.00
73564;BME280;61834;50.196;6.454;2023-01-16T12:33:58;92828.31;;;2.22;100.00
73564;BME280;61834;50.196;6.454;2023-01-16T12:42:34;92800.69;;;2.18;100.00
73564;BME280;61834;50.196;6.454;2023-01-16T12:51:37;92792.47;;;2.41;100.00
73564;BME280;61834;50.196;6.454;2023-01-16T12:54:15;92782.53;;;2.38;100.00
73564;BME280;61834;50.196;6.454;2023-01-16T12:56:59;92775.00;;;2.30;100.00
73564;BME280;61834;50.196;6.454;2023-01-16T12:59:45;92765.63;;;2.34;100.00
73564;BME280;61834;50.196;6.454;2023-01-16T13:04:56;92758.16;;;2.42;100.00
73564;BME280;61834;50.196;6.454;2023-01-16T13:07:25;92753.16;;;2.40;100.00
73564;BME280;61834;50.196;6.454;2023-01-16T13:10:13;92736.88;;;2.44;100.00
73564;BME280;61834;50.196;6.454;2023-01-16T13:13:01;92731.41;;;2.47;100.00
73564;BME280;61834;50.196;6.454;2023-01-16T13:15:51;92721.47;;;2.60;100.00
73564;BME280;61834;50.196;6.454;2023-01-16T13:18:24;92718.78;;;2.60;100.00
73564;BME280;61834;50.196;6.454;2023-01-16T13:20:55;92722.25;;;2.61;100.00
73564;BME280;61834;50.196;6.454;2023-01-16T13:23:24;92719.38;;;2.68;100.00
73564;BME280;61834;50.196;6.454;2023-01-16T13:25:55;92706.31;;;2.67;100.00
73564;BME280;61834;50.196;6.454;2023-01-16T13:28:35;92709.66;;;2.71;100.00
73564;BME280;61834;50.196;6.454;2023-01-16T13:31:07;92701.41;;;2.78;100.00
73564;BME280;61834;50.196;6.454;2023-01-16T13:33:37;92703.34;;;2.77;100.00
73564;BME280;61834;50.196;6.454;2023-01-16T13:41:27;92688.16;;;2.51;100.00
73564;BME280;61834;50.196;6.454;2023-01-16T13:44:17;92681.75;;;2.45;100.00
73564;BME280;61834;50.196;6.454;2023-01-16T13:47:09;92670.88;;;2.48;100.00
73564;BME280;61834;50.196;6.454;2023-01-16T13:49:36;92672.72;;;2.51;100.00
73564;BME280;61834;50.196;6.454;2023-01-16T13:52:03;92668.50;;;2.50;100.00
73564;BME280;61834;50.196;6.454;2023-01-16T13:54:36;92663.78;;;2.54;100.00
73564;BME280;61834;50.196;6.454;2023-01-16T13:57:03;92662.78;;;2.48;100.00
73564;BME280;61834;50.196;6.454;2023-01-16T13:59:35;92669.09;;;2.58;100.00
73564;BME280;61834;50.196;6.454;2023-01-16T14:02:21;92665.22;;;2.59;100.00
73564;BME280;61834;50.196;6.454;2023-01-16T14:13:23;92647.44;;;2.62;100.00
73564;BME280;61834;50.196;6.454;2023-01-16T14:15:52;92644.66;;;2.65;100.00
73564;BME280;61834;50.196;6.454;2023-01-16T14:18:39;92640.06;;;2.62;100.00
73564;BME280;61834;50.196;6.454;2023-01-16T14:21:23;92639.06;;;2.56;100.00
73564;BME280;61834;50.196;6.454;2023-01-16T14:23:57;92627.28;;;2.50;100.00
73564;BME280;61834;50.196;6.454;2023-01-16T14:29:18;92627.44;;;2.43;100.00
73564;BME280;61834;50.196;6.454;2023-01-16T14:31:55;92620.78;;;2.47;100.00
73564;BME280;61834;50.196;6.454;2023-01-16T14:34:46;92627.53;;;2.39;100.00
73564;BME280;61834;50.196;6.454;2023-01-16T14:37:33;92618.16;;;2.28;100.00
73564;BME280;61834;50.196;6.454;2023-01-16T14:42:37;92623.66;;;2.24;100.00
73564;BME280;61834;50.196;6.454;2023-01-16T14:54:17;92643.44;;;2.02;100.00
73564;BME280;61834;50.196;6.454;2023-01-16T14:57:10;92649.03;;;1.75;100.00
73564;BME280;61834;50.196;6.454;2023-01-16T14:59:41;92654.50;;;1.72;100.00
73564;BME280;61834;50.196;6.454;2023-01-16T15:02:15;92646.63;;;1.61;100.00
73564;BME280;61834;50.196;6.454;2023-01-16T15:04:51;92643.09;;;1.64;100.00
73564;BME280;61834;50.196;6.454;2023-01-16T15:07:22;92648.56;;;1.61;100.00
73564;BME280;61834;50.196;6.454;2023-01-16T15:09:50;92640.22;;;1.55;100.00
73564;BME280;61834;50.196;6.454;2023-01-16T15:12:17;92647.81;;;1.60;100.00
73564;BME280;61834;50.196;6.454;2023-01-16T15:14:57;92643.09;;;1.64;100.00
73564;BME280;61834;50.196;6.454;2023-01-16T15:17:33;92642.97;;;1.87;100.00
73564;BME280;61834;50.196;6.454;2023-01-16T15:23:05;92640.56;;;2.09;100.00